Time;durP1;ratioP1;P1;durP2;ratioP2;P2;SDS_P1;SDS_P2;PMS_P1;PMS_P2;Temp;Humidity;BMP_temperature;BMP_pressure;BME280_temperature;BME280_humidity;BME280_pressure;Samples;Min_cycle;Max_cycle;Signal;HPM_P1;HPM_P2
2022/07/29 00:00:55;;;;;;;0.00;0.00;;;;;;;19.60;51.83;101868.16;5042406;28;20056;-74
2022/07/29 00:03:21;;;;;;;0.10;0.10;;;;;;;19.60;51.91;101870.84;5047337;28;20035;-74
2022/07/29 00:05:48;;;;;;;0.10;0.10;;;;;;;19.59;51.78;101873.56;5044477;28;20036;-74
2022/07/29 00:08:15;;;;;;;0.47;0.47;;;;;;;19.58;51.55;101871.81;5040694;28;20518;-74
2022/07/29 00:10:42;;;;;;;0.10;0.10;;;;;;;19.54;51.90;101865.72;5045260;28;20064;-74
2022/07/29 00:13:08;;;;;;;0.10;0.10;;;;;;;19.49;52.74;101870.38;5045096;28;20115;-74
2022/07/29 00:15:34;;;;;;;0.00;0.00;;;;;;;19.48;51.70;101871.34;5044499;28;20032;-74
2022/07/29 00:18:00;;;;;;;0.10;0.10;;;;;;;19.46;52.26;101867.84;5035675;28;20032;-77
2022/07/29 00:20:27;;;;;;;0.00;0.00;;;;;;;19.43;52.55;101867.94;5044054;28;20029;-74
2022/07/29 00:22:53;;;;;;;0.00;0.00;;;;;;;19.42;52.28;101863.53;5043683;28;20029;-74
2022/07/29 00:25:19;;;;;;;0.00;0.00;;;;;;;19.42;52.11;101858.16;5043651;28;20025;-74
2022/07/29 00:27:46;;;;;;;0.00;0.00;;;;;;;19.41;52.63;101857.28;5048294;28;20033;-74
2022/07/29 00:30:13;;;;;;;0.10;0.10;;;;;;;19.42;53.48;101850.09;5044386;28;20043;-76
2022/07/29 00:32:39;;;;;;;0.00;0.00;;;;;;;19.44;52.76;101858.94;5046406;28;20035;-77
2022/07/29 00:37:52;;;;;;;0.57;0.57;;;;;;;19.44;53.03;101850.88;5035610;28;20049;-77
2022/07/29 00:40:18;;;;;;;0.10;0.10;;;;;;;19.42;52.93;101844.72;5048034;28;20032;-74
2022/07/29 00:42:47;;;;;;;0.05;0.05;;;;;;;19.40;53.07;101842.97;5036248;28;20033;-74
2022/07/29 00:45:36;;;;;;;0.00;0.00;;;;;;;19.50;52.29;101848.84;5048557;28;20037;-74
2022/07/29 00:48:04;;;;;;;0.00;0.00;;;;;;;19.43;52.74;101841.06;5037692;28;20060;-74
2022/07/29 00:50:31;;;;;;;0.10;0.10;;;;;;;19.43;52.23;101835.69;5045298;28;20037;-74
2022/07/29 00:52:58;;;;;;;0.10;0.10;;;;;;;19.45;52.34;101840.09;5055325;28;20540;-74
2022/07/29 00:55:25;;;;;;;0.00;0.00;;;;;;;19.45;52.95;101844.59;5043065;28;20033;-74
2022/07/29 00:57:52;;;;;;;0.00;0.00;;;;;;;19.45;52.79;101840.09;5042852;28;20069;-74
2022/07/29 01:00:22;;;;;;;0.00;0.00;;;;;;;19.45;52.13;101837.41;5040981;28;20024;-77
2022/07/29 01:02:49;;;;;;;0.10;0.10;;;;;;;19.40;52.84;101839.38;5035851;28;20399;-77
2022/07/29 01:05:18;;;;;;;0.00;0.00;;;;;;;19.42;53.09;101839.34;5044357;28;20029;-77
2022/07/29 01:07:47;;;;;;;0.10;0.10;;;;;;;19.38;52.55;101833.22;5050269;28;20499;-77
2022/07/29 01:10:15;;;;;;;0.10;0.10;;;;;;;19.37;52.81;101835.03;5040827;28;20029;-76
2022/07/29 01:12:43;;;;;;;0.00;0.00;;;;;;;19.34;52.65;101826.22;5045028;28;20032;-77
2022/07/29 01:15:10;;;;;;;0.00;0.00;;;;;;;19.29;53.29;101838.97;5036696;28;20159;-77
2022/07/29 01:17:44;;;;;;;0.10;0.10;;;;;;;19.30;52.82;101827.28;5035625;28;20511;-77
2022/07/29 01:26:17;;;;;;;0.00;0.00;;;;;;;19.30;53.17;101824.59;5103311;27;20408;-75
2022/07/29 01:31:55;;;;;;;0.10;0.10;;;;;;;19.26;53.47;101833.72;5126423;27;20429;-75
2022/07/29 01:34:32;;;;;;;0.10;0.10;;;;;;;19.21;53.60;101831.22;5104916;28;20028;-74
2022/07/29 01:37:13;;;;;;;0.00;0.00;;;;;;;19.21;52.89;101829.38;5104304;28;20020;-74
2022/07/29 01:39:41;;;;;;;0.00;0.00;;;;;;;19.18;53.31;101825.97;5105636;28;20515;-74
2022/07/29 01:45:23;;;;;;;0.00;0.00;;;;;;;19.26;53.81;101829.22;5065900;28;20876;-74
2022/07/29 01:50:39;;;;;;;0.08;0.08;;;;;;;19.20;53.72;101822.28;5062584;28;20406;-74
2022/07/29 01:53:09;;;;;;;0.08;0.08;;;;;;;19.19;53.94;101822.34;5063011;28;20040;-74
2022/07/29 01:55:41;;;;;;;0.00;0.00;;;;;;;19.18;53.57;101818.78;5062743;28;20530;-75
2022/07/29 01:58:08;;;;;;;0.10;0.10;;;;;;;19.17;54.43;101821.53;5061663;28;20503;-75
2022/07/29 02:00:35;;;;;;;0.00;0.00;;;;;;;19.16;53.62;101812.59;5066415;28;20040;-75
2022/07/29 02:03:07;;;;;;;0.00;0.00;;;;;;;19.17;54.13;101813.50;5074488;28;20035;-76
2022/07/29 02:05:35;;;;;;;0.10;0.10;;;;;;;19.13;54.00;101818.09;5057763;28;21362;-75
2022/07/29 02:08:04;;;;;;;0.10;0.10;;;;;;;19.12;53.77;101812.81;5059589;28;20552;-75
2022/07/29 02:10:33;;;;;;;0.00;0.00;;;;;;;19.11;54.13;101811.03;5057728;28;20028;-75
2022/07/29 02:13:01;;;;;;;0.00;0.00;;;;;;;19.08;53.72;101810.22;5064665;28;20068;-76
2022/07/29 02:15:29;;;;;;;0.10;0.10;;;;;;;19.07;54.19;101808.47;5056869;28;20059;-75
2022/07/29 02:18:01;;;;;;;0.10;0.10;;;;;;;19.07;54.09;101808.47;5062714;28;20035;-75
2022/07/29 02:20:28;;;;;;;0.10;0.10;;;;;;;19.04;54.17;101813.97;5065151;28;20029;-75
2022/07/29 02:22:56;;;;;;;0.05;0.05;;;;;;;19.03;53.56;101817.59;5065389;28;20033;-75
2022/07/29 02:25:24;;;;;;;0.00;0.00;;;;;;;19.03;54.03;101809.53;5073945;28;20497;-75
2022/07/29 02:27:52;;;;;;;0.00;0.00;;;;;;;19.01;54.21;101813.22;5069185;28;20032;-75
2022/07/29 02:30:21;;;;;;;0.05;0.05;;;;;;;19.00;53.90;101806.97;5060253;28;20020;-75
2022/07/29 02:32:49;;;;;;;0.10;0.10;;;;;;;18.98;53.79;101807.97;5056025;28;20056;-76
2022/07/29 02:35:16;;;;;;;0.00;0.00;;;;;;;18.97;54.21;101804.41;5059374;28;20029;-75
2022/07/29 02:37:43;;;;;;;0.03;0.03;;;;;;;18.94;55.43;101801.88;5063685;28;20033;-75
2022/07/29 02:40:14;;;;;;;0.00;0.00;;;;;;;18.93;54.73;101800.13;5069518;28;20111;-76
2022/07/29 02:42:43;;;;;;;0.05;0.05;;;;;;;18.89;54.26;101798.44;5066697;28;20040;-75
2022/07/29 02:45:10;;;;;;;0.00;0.00;;;;;;;18.87;54.00;101797.63;5064035;28;20055;-75
2022/07/29 02:47:44;;;;;;;0.75;0.75;;;;;;;18.88;54.63;101796.72;5058048;28;20071;-75
2022/07/29 02:50:19;;;;;;;0.10;0.10;;;;;;;18.87;54.52;101800.31;5066570;28;20117;-75
2022/07/29 02:52:56;;;;;;;0.10;0.10;;;;;;;18.88;54.60;101796.72;5068093;28;20032;-75
2022/07/29 02:55:29;;;;;;;0.00;0.00;;;;;;;18.84;54.57;101789.69;5080520;28;20033;-75
2022/07/29 02:58:00;;;;;;;0.10;0.10;;;;;;;18.83;54.46;101793.31;5076501;28;20101;-76
2022/07/29 03:00:29;;;;;;;0.00;0.00;;;;;;;18.79;55.00;101789.88;5068067;28;20646;-75
2022/07/29 03:03:03;;;;;;;0.00;0.00;;;;;;;18.78;54.92;101789.94;5046377;28;20499;-75
2022/07/29 03:05:30;;;;;;;0.00;0.00;;;;;;;18.75;55.10;101789.13;5054155;28;20028;-75
2022/07/29 03:08:05;;;;;;;0.00;0.00;;;;;;;18.76;54.68;101790.84;5049792;28;20059;-75
2022/07/29 03:10:32;;;;;;;0.30;0.30;;;;;;;18.71;54.82;101794.69;5042574;28;20127;-75
2022/07/29 03:13:00;;;;;;;0.00;0.00;;;;;;;18.71;54.42;101800.03;5057356;28;20032;-75
2022/07/29 03:15:27;;;;;;;0.00;0.00;;;;;;;18.68;54.51;101792.09;5047400;28;20040;-75
2022/07/29 03:17:55;;;;;;;0.00;0.00;;;;;;;18.57;55.25;101793.41;5055708;28;20658;-75
2022/07/29 03:20:21;;;;;;;0.05;0.05;;;;;;;18.59;54.55;101793.31;5054763;28;20041;-75
2022/07/29 03:22:47;;;;;;;0.00;0.00;;;;;;;18.58;53.96;101795.16;5068306;28;20042;-75
2022/07/29 03:25:16;;;;;;;0.05;0.05;;;;;;;18.53;54.89;101790.88;5042073;28;20108;-75
2022/07/29 03:27:43;;;;;;;0.05;0.05;;;;;;;18.54;55.01;101782.78;5049091;28;20047;-75
2022/07/29 03:30:11;;;;;;;0.00;0.00;;;;;;;18.52;55.10;101789.16;5045544;28;20071;-74
2022/07/29 03:32:38;;;;;;;0.00;0.00;;;;;;;18.50;55.36;101783.81;5047698;28;20488;-75
2022/07/29 03:35:05;;;;;;;0.00;0.00;;;;;;;18.50;55.31;101781.13;5051613;28;20037;-75
2022/07/29 03:37:33;;;;;;;0.10;0.10;;;;;;;18.49;55.36;101778.53;5052462;28;20032;-75
2022/07/29 03:40:01;;;;;;;0.00;0.00;;;;;;;18.49;54.71;101778.53;5054882;28;20510;-75
2022/07/29 03:42:36;;;;;;;0.10;0.10;;;;;;;18.50;55.51;101778.44;5053682;28;20037;-75
2022/07/29 03:45:24;;;;;;;0.00;0.00;;;;;;;18.49;55.81;101783.88;5047696;28;20035;-75
2022/07/29 03:47:57;;;;;;;0.00;0.00;;;;;;;18.42;55.41;101784.13;5052732;28;20091;-75
2022/07/29 03:50:23;;;;;;;0.00;0.00;;;;;;;18.38;54.97;101771.75;5054740;28;20028;-75
2022/07/29 03:52:50;;;;;;;0.00;0.00;;;;;;;18.36;54.83;101773.63;5054507;28;20449;-76
2022/07/29 03:55:16;;;;;;;2.17;0.43;;;;;;;18.34;55.09;101778.16;5047101;28;21246;-76
2022/07/29 03:57:44;;;;;;;0.10;0.10;;;;;;;18.31;55.75;101780.13;5057415;28;20108;-75
2022/07/29 04:00:11;;;;;;;0.00;0.00;;;;;;;18.28;55.07;101775.75;5045373;28;20056;-76
2022/07/29 04:02:39;;;;;;;0.10;0.10;;;;;;;18.27;55.43;101780.22;5049288;28;20032;-76
2022/07/29 04:05:11;;;;;;;0.00;0.00;;;;;;;18.25;56.06;101778.53;5043155;28;20112;-76
2022/07/29 04:07:37;;;;;;;;;;;;;;;18.40;55.53;101779.75;5042805;28;20082;-75
2022/07/29 04:10:03;;;;;;;0.00;0.00;;;;;;;18.26;55.08;101782.97;5051503;28;19913;-75
2022/07/29 04:12:29;;;;;;;0.20;0.20;;;;;;;18.22;55.92;101781.34;5045419;28;20044;-75
2022/07/29 04:14:55;;;;;;;0.00;0.00;;;;;;;18.22;55.68;101776.81;5049547;28;20034;-76
2022/07/29 04:17:21;;;;;;;0.10;0.10;;;;;;;18.18;56.10;101775.19;5048592;28;20056;-76
2022/07/29 04:19:47;;;;;;;0.00;0.00;;;;;;;18.19;55.71;101776.06;5045217;28;20017;-76
2022/07/29 04:22:13;;;;;;;0.00;0.00;;;;;;;18.19;55.32;101781.44;5049468;28;20033;-76
2022/07/29 04:24:40;;;;;;;0.10;0.10;;;;;;;18.16;55.83;101781.56;5047794;28;20028;-75
2022/07/29 04:27:06;;;;;;;0.00;0.00;;;;;;;18.20;55.97;101791.22;5051510;28;20059;-75
2022/07/29 04:29:32;;;;;;;0.10;0.10;;;;;;;18.23;55.67;101791.09;5044883;28;20552;-75
2022/07/29 04:31:58;;;;;;;0.00;0.00;;;;;;;18.26;55.46;101785.63;5041234;28;20033;-77
2022/07/29 04:34:24;;;;;;;0.10;0.10;;;;;;;18.28;55.46;101791.84;5041479;28;20116;-77
2022/07/29 04:36:50;;;;;;;0.00;0.00;;;;;;;18.27;55.48;101780.22;5041691;28;20555;-77
2022/07/29 04:39:18;;;;;;;0.03;0.03;;;;;;;18.31;55.15;101785.47;5045106;28;20448;-75
2022/07/29 04:41:44;;;;;;;0.10;0.10;;;;;;;18.32;55.15;101785.41;5041491;28;20112;-75
2022/07/29 04:44:10;;;;;;;0.00;0.00;;;;;;;18.31;55.23;101786.34;5044727;28;20028;-75
2022/07/29 04:46:36;;;;;;;0.08;0.08;;;;;;;18.32;54.82;101787.19;5044983;28;20108;-75
2022/07/29 04:49:04;;;;;;;0.00;0.00;;;;;;;18.30;55.24;101786.41;5042367;28;20454;-75
2022/07/29 04:51:30;;;;;;;0.10;0.10;;;;;;;18.29;55.54;101788.19;5042177;28;20037;-75
2022/07/29 04:53:56;;;;;;;0.00;0.00;;;;;;;18.30;55.23;101787.25;5043447;28;20064;-75
2022/07/29 04:56:23;;;;;;;0.00;0.00;;;;;;;18.29;55.13;101792.69;5045473;28;20453;-74
2022/07/29 04:58:49;;;;;;;0.05;0.05;;;;;;;18.27;55.17;101790.09;5051053;28;20032;-74
2022/07/29 05:01:15;;;;;;;0.10;0.10;;;;;;;18.24;55.29;101784.81;5050656;28;20078;-74
2022/07/29 05:03:41;;;;;;;0.10;0.10;;;;;;;18.24;55.48;101784.81;5046599;28;20039;-75
2022/07/29 05:06:07;;;;;;;0.00;0.00;;;;;;;18.23;55.65;101778.59;5047939;28;20503;-75
2022/07/29 05:08:33;;;;;;;0.10;0.10;;;;;;;18.28;55.13;101786.47;5050836;28;20119;-74
2022/07/29 05:11:00;;;;;;;0.08;0.08;;;;;;;18.24;56.36;101783.03;5049924;28;20052;-74
2022/07/29 05:13:26;;;;;;;0.00;0.00;;;;;;;18.30;55.66;101783.72;5046773;28;20036;-74
2022/07/29 05:15:52;;;;;;;0.10;0.10;;;;;;;18.32;55.63;101780.03;5039220;28;20035;-74
2022/07/29 05:18:18;;;;;;;0.65;0.65;;;;;;;18.36;55.32;101784.34;5044499;22;20104;-82
2022/07/29 05:20:44;;;;;;;0.00;0.00;;;;;;;18.37;55.56;101793.28;4999333;28;20050;-82
2022/07/29 05:23:12;;;;;;;0.00;0.00;;;;;;;18.37;55.61;101779.88;4991880;28;20026;-82
2022/07/29 05:25:38;;;;;;;0.00;0.00;;;;;;;18.34;55.71;101778.16;4993610;28;20030;-82
2022/07/29 05:28:05;;;;;;;0.03;0.03;;;;;;;18.34;55.66;101788.03;4992187;28;20034;-82
2022/07/29 05:30:31;;;;;;;0.10;0.10;;;;;;;18.32;55.46;101788.09;4997999;28;20053;-83
2022/07/29 05:32:57;;;;;;;0.10;0.10;;;;;;;18.33;55.56;101795.22;4989815;28;20038;-82
2022/07/29 05:35:23;;;;;;;0.10;0.10;;;;;;;18.35;55.59;101800.53;4992649;28;20515;-81
2022/07/29 05:37:50;;;;;;;0.10;0.10;;;;;;;18.37;55.47;101787.94;4993431;28;20038;-82
2022/07/29 05:40:16;;;;;;;0.10;0.10;;;;;;;18.34;56.10;101796.94;4992142;28;20026;-81
2022/07/29 05:42:42;;;;;;;0.10;0.10;;;;;;;18.36;55.94;101805.81;4993368;28;20535;-82
2022/07/29 05:45:09;;;;;;;0.00;0.00;;;;;;;18.39;55.89;101810.19;4990828;28;20111;-82
2022/07/29 05:47:35;;;;;;;0.00;0.00;;;;;;;18.42;55.21;101813.63;4992787;28;20038;-83
2022/07/29 05:50:01;;;;;;;0.00;0.00;;;;;;;18.45;55.78;101809.09;4992370;28;20026;-82
2022/07/29 05:52:28;;;;;;;0.05;0.05;;;;;;;18.47;55.31;101810.78;4993055;28;20038;-82
2022/07/29 05:54:54;;;;;;;0.10;0.10;;;;;;;18.53;55.02;101807.88;4991574;28;20038;-82
2022/07/29 05:57:22;;;;;;;1.00;0.63;;;;;;;18.56;55.44;101797.00;4990031;28;20423;-82
2022/07/29 05:59:49;;;;;;;0.00;0.00;;;;;;;18.60;55.17;101805.81;4985025;28;20026;-82
2022/07/29 06:02:16;;;;;;;0.20;0.20;;;;;;;18.62;55.32;101801.28;4991587;28;20026;-82
2022/07/29 06:04:43;;;;;;;0.05;0.05;;;;;;;18.64;55.29;101804.78;4994691;28;20469;-82
2022/07/29 06:07:11;;;;;;;0.10;0.10;;;;;;;18.70;55.10;101804.53;4989613;28;20026;-81
2022/07/29 06:09:37;;;;;;;0.10;0.10;;;;;;;18.78;54.60;101811.41;4993603;28;20026;-82
2022/07/29 06:12:04;;;;;;;0.20;0.20;;;;;;;18.82;54.89;101813.91;4984797;28;20125;-83
2022/07/29 06:14:30;;;;;;;0.10;0.10;;;;;;;18.86;54.93;101812.84;4988623;28;20022;-82
2022/07/29 06:16:56;;;;;;;0.00;0.00;;;;;;;18.93;54.71;101816.22;4989025;28;20030;-82
2022/07/29 06:19:22;;;;;;;0.00;0.00;;;;;;;19.00;54.42;101820.38;4986203;28;20034;-82
2022/07/29 06:21:48;;;;;;;0.10;0.10;;;;;;;19.06;54.09;101820.16;4983601;28;20503;-82
2022/07/29 06:24:15;;;;;;;0.10;0.10;;;;;;;19.13;54.26;101817.22;4988672;28;20022;-83
2022/07/29 06:26:42;;;;;;;0.05;0.05;;;;;;;19.19;54.39;101806.22;4991699;28;20038;-82
2022/07/29 06:29:10;;;;;;;0.03;0.03;;;;;;;19.26;54.74;101810.41;4987716;28;20050;-84
2022/07/29 06:31:37;;;;;;;0.50;0.50;;;;;;;19.38;54.39;101812.59;4986750;28;20081;-82
2022/07/29 06:34:04;;;;;;;0.10;0.10;;;;;;;19.51;53.88;101822.81;4987320;28;20475;-83
2022/07/29 06:36:33;;;;;;;0.47;0.45;;;;;;;19.66;53.80;101821.31;4985877;28;20370;-81
2022/07/29 06:39:00;;;;;;;0.03;0.03;;;;;;;19.78;53.52;101825.28;4991664;28;20483;-83
2022/07/29 06:41:26;;;;;;;0.10;0.10;;;;;;;19.86;53.24;101820.47;4989111;28;20035;-83
2022/07/29 06:43:52;;;;;;;0.00;0.00;;;;;;;19.99;53.28;101819.00;4989892;28;20041;-83
2022/07/29 06:46:19;;;;;;;0.00;0.00;;;;;;;20.15;53.22;101816.50;4991800;28;20022;-81
2022/07/29 06:48:47;;;;;;;0.82;0.82;;;;;;;20.25;53.04;101814.28;5003140;28;20026;-82
2022/07/29 06:51:13;;;;;;;0.22;0.22;;;;;;;20.38;52.95;101819.97;4990891;28;20034;-82
2022/07/29 06:53:40;;;;;;;0.00;0.00;;;;;;;20.54;52.60;101817.44;4990622;28;20034;-83
2022/07/29 06:56:08;;;;;;;0.10;0.10;;;;;;;20.67;52.33;101825.81;4991432;28;20058;-82
2022/07/29 06:58:35;;;;;;;0.20;0.20;;;;;;;20.80;52.13;101826.16;4990579;28;20031;-82
2022/07/29 07:01:03;;;;;;;0.10;0.10;;;;;;;20.89;51.96;101827.53;4993992;28;20727;-83
2022/07/29 07:03:30;;;;;;;0.00;0.00;;;;;;;20.87;50.74;101827.59;4992598;28;20553;-82
2022/07/29 07:05:56;;;;;;;0.10;0.10;;;;;;;20.86;51.65;101828.56;4991690;28;20084;-82
2022/07/29 07:08:23;;;;;;;0.10;0.10;;;;;;;20.86;51.67;101825.84;4988432;28;20044;-82
2022/07/29 07:10:51;;;;;;;0.10;0.10;;;;;;;20.84;52.08;101827.75;4989405;28;20026;-83
2022/07/29 07:13:18;;;;;;;0.10;0.10;;;;;;;20.85;52.07;101834.88;4990696;28;20109;-83
2022/07/29 07:15:47;;;;;;;0.00;0.00;;;;;;;20.89;51.78;101841.00;4999709;28;20105;-83
2022/07/29 07:18:14;;;;;;;0.10;0.10;;;;;;;20.92;51.60;101844.44;4991981;28;20026;-84
2022/07/29 07:20:41;;;;;;;0.10;0.10;;;;;;;21.01;51.44;101843.09;4989216;28;20025;-83
2022/07/29 07:23:10;;;;;;;0.10;0.10;;;;;;;21.10;51.72;101847.19;4990239;28;20041;-82
2022/07/29 07:25:36;;;;;;;0.10;0.10;;;;;;;21.19;51.89;101844.03;4989725;28;20030;-83
2022/07/29 07:28:03;;;;;;;0.10;0.10;;;;;;;21.26;51.33;101845.47;4990457;28;20026;-82
2022/07/29 07:30:29;;;;;;;0.10;0.10;;;;;;;21.35;50.91;101844.13;4997727;28;20086;-83
2022/07/29 07:32:55;;;;;;;0.13;0.13;;;;;;;21.44;50.84;101838.28;4993348;28;20582;-83
2022/07/29 07:35:22;;;;;;;0.10;0.10;;;;;;;21.55;50.88;101835.03;4994833;28;20050;-82
2022/07/29 07:37:48;;;;;;;0.20;0.20;;;;;;;21.65;50.86;101841.75;4989469;28;20038;-83
2022/07/29 07:40:15;;;;;;;0.00;0.00;;;;;;;21.72;49.80;101850.41;4989089;28;20024;-82
2022/07/29 07:42:41;;;;;;;0.17;0.17;;;;;;;21.83;50.41;101855.22;4989503;28;20409;-84
2022/07/29 07:45:11;;;;;;;0.00;0.00;;;;;;;21.94;49.93;101850.19;4993009;28;20038;-87
2022/07/29 07:47:41;;;;;;;0.15;0.15;;;;;;;22.07;49.97;101846.81;4991736;28;20041;-85
2022/07/29 07:50:10;;;;;;;0.05;0.05;;;;;;;22.16;49.58;101840.94;4990209;28;20456;-85
2022/07/29 07:52:50;;;;;;;0.00;0.00;;;;;;;22.35;49.46;101840.81;4991083;28;20054;-86
2022/07/29 07:55:16;;;;;;;0.00;0.00;;;;;;;22.40;49.21;101840.63;4990742;28;20030;-86
2022/07/29 07:57:43;;;;;;;0.00;0.00;;;;;;;22.55;48.95;101834.38;4991739;28;20038;-84
2022/07/29 08:00:09;;;;;;;0.10;0.10;;;;;;;22.71;48.66;101838.94;4991766;28;20026;-84
2022/07/29 08:02:35;;;;;;;0.10;0.10;;;;;;;22.87;49.25;101839.81;4989110;28;20027;-85
2022/07/29 08:05:01;;;;;;;0.10;0.10;;;;;;;23.07;48.46;101841.38;4990974;28;20022;-84
2022/07/29 08:07:29;;;;;;;0.00;0.00;;;;;;;23.22;47.75;101834.25;4989701;28;20470;-82
2022/07/29 08:09:57;;;;;;;0.00;0.00;;;;;;;23.38;47.33;101836.94;4989606;28;20022;-84
2022/07/29 08:12:24;;;;;;;0.10;0.10;;;;;;;23.46;46.20;101836.47;4994757;28;20106;-84
2022/07/29 08:14:50;;;;;;;0.20;0.20;;;;;;;23.53;45.82;101835.16;4990029;28;20045;-82
2022/07/29 08:17:16;;;;;;;0.10;0.10;;;;;;;23.63;46.11;101842.72;4989195;28;20464;-83
2022/07/29 08:19:42;;;;;;;0.22;0.22;;;;;;;23.66;46.25;101839.84;4986699;28;20030;-83
2022/07/29 08:22:08;;;;;;;0.10;0.10;;;;;;;23.69;46.54;101832.41;4988510;28;20037;-83
2022/07/29 08:25:05;;;;;;;0.10;0.10;;;;;;;23.69;46.21;101831.53;4986625;28;20022;-82
2022/07/29 08:27:21;;;;;;;0.10;0.10;;;;;;;23.74;46.67;101838.44;4989218;28;20068;-82
2022/07/29 08:29:47;;;;;;;0.10;0.10;;;;;;;23.77;46.21;101834.66;4993727;28;20030;-82
2022/07/29 08:32:14;;;;;;;0.10;0.10;;;;;;;23.76;46.11;101835.63;4987846;28;20030;-82
2022/07/29 08:34:40;;;;;;;0.10;0.10;;;;;;;23.70;46.20;101836.00;4987189;28;20062;-83
2022/07/29 08:37:09;;;;;;;0.10;0.10;;;;;;;23.64;45.96;101834.53;4987205;28;20512;-82
2022/07/29 08:39:35;;;;;;;0.10;0.10;;;;;;;23.73;45.92;101842.09;4984917;28;20030;-82
2022/07/29 08:42:01;;;;;;;0.10;0.10;;;;;;;23.65;45.26;101843.50;4994305;28;20041;-83
2022/07/29 08:44:27;;;;;;;0.10;0.10;;;;;;;23.76;46.17;101841.03;4994880;28;20119;-83
2022/07/29 08:46:54;;;;;;;0.10;0.10;;;;;;;23.84;46.43;101843.28;4994468;28;20049;-81
2022/07/29 08:49:22;;;;;;;0.25;0.25;;;;;;;23.96;46.42;101844.41;4980771;28;20054;-79
2022/07/29 08:51:49;;;;;;;0.10;0.10;;;;;;;23.97;46.07;101843.44;4995353;28;20062;-85
2022/07/29 08:54:18;;;;;;;0.10;0.10;;;;;;;24.00;45.70;101843.25;4997124;28;20033;-81
2022/07/29 08:56:47;;;;;;;0.10;0.10;;;;;;;23.99;45.30;101841.50;4988586;28;20026;-82
2022/07/29 08:59:15;;;;;;;0.10;0.10;;;;;;;24.11;45.53;101840.75;4994986;28;20113;-81
2022/07/29 09:01:43;;;;;;;0.10;0.10;;;;;;;24.21;45.63;101841.94;4996982;28;20030;-84
2022/07/29 09:04:11;;;;;;;0.10;0.10;;;;;;;24.31;45.56;101841.34;4997626;28;20553;-84
2022/07/29 09:06:45;;;;;;;0.13;0.13;;;;;;;24.36;45.22;101839.22;4993116;28;20118;-81
2022/07/29 09:09:13;;;;;;;0.10;0.10;;;;;;;24.41;44.62;101837.09;4977131;28;20023;-83
2022/07/29 09:11:40;;;;;;;0.10;0.10;;;;;;;24.57;44.40;101828.88;4992450;28;20035;-82
2022/07/29 09:14:07;;;;;;;0.30;0.30;;;;;;;24.65;44.38;101831.13;4996248;28;20512;-82
2022/07/29 09:16:51;;;;;;;0.10;0.10;;;;;;;24.79;44.03;101830.25;4989327;28;20048;-84
2022/07/29 09:19:28;;;;;;;0.10;0.10;;;;;;;24.82;44.45;101830.94;4991387;28;20109;-83
2022/07/29 09:21:58;;;;;;;0.10;0.10;;;;;;;24.84;43.69;101828.97;4980167;28;20029;-82
2022/07/29 09:24:35;;;;;;;0.10;0.10;;;;;;;24.86;44.07;101829.75;4978666;28;20035;-82
2022/07/29 09:27:01;;;;;;;0.10;0.10;;;;;;;24.83;44.05;101820.94;4984498;28;20038;-84
2022/07/29 09:29:28;;;;;;;0.10;0.10;;;;;;;24.76;43.89;101830.44;4991160;28;20022;-83
2022/07/29 09:31:55;;;;;;;0.20;0.20;;;;;;;24.73;44.27;101822.50;4989301;28;20038;-82
2022/07/29 09:37:04;;;;;;;0.10;0.10;;;;;;;24.74;43.68;101817.00;5110364;27;20925;-82
2022/07/29 09:39:33;;;;;;;0.10;0.10;;;;;;;24.78;43.83;101826.66;5105092;28;20066;-82
2022/07/29 09:42:03;;;;;;;0.10;0.10;;;;;;;24.75;44.13;101829.56;5101250;28;20020;-83
2022/07/29 09:44:50;;;;;;;0.00;0.00;;;;;;;24.87;43.41;101836.03;5099325;28;20028;-83
2022/07/29 09:47:18;;;;;;;0.00;0.00;;;;;;;24.92;43.96;101839.31;5103280;28;20091;-82
2022/07/29 09:50:00;;;;;;;0.10;0.10;;;;;;;25.03;43.09;101834.06;5105585;28;20398;-83
2022/07/29 09:52:28;;;;;;;0.00;0.00;;;;;;;25.08;43.63;101832.88;5102828;28;20035;-82
2022/07/29 09:55:06;;;;;;;0.28;0.28;;;;;;;25.14;42.69;101833.34;5103737;28;20208;-82
2022/07/29 09:57:32;;;;;;;0.05;0.05;;;;;;;25.14;42.44;101827.91;5108597;28;20407;-82
2022/07/29 10:00:08;;;;;;;0.20;0.20;;;;;;;25.13;41.80;101837.03;5109212;28;20085;-82
2022/07/29 10:02:36;;;;;;;0.10;0.10;;;;;;;25.22;42.92;101834.69;5109358;28;20047;-82
2022/07/29 10:05:05;;;;;;;0.10;0.10;;;;;;;25.19;42.51;101842.03;5111006;28;20031;-81
2022/07/29 10:07:46;;;;;;;0.17;0.17;;;;;;;25.31;42.45;101832.22;5112430;28;20557;-81
2022/07/29 10:13:09;;;;;;;0.10;0.10;;;;;;;25.38;42.45;101831.84;5114866;27;20936;-82
2022/07/29 10:15:40;;;;;;;0.10;0.10;;;;;;;25.37;42.57;101828.25;5095880;28;20070;-83
2022/07/29 10:18:07;;;;;;;0.08;0.08;;;;;;;25.32;42.38;101827.66;5088245;28;20024;-81
2022/07/29 10:20:34;;;;;;;0.10;0.10;;;;;;;25.40;42.73;101830.78;5085660;28;20100;-81
2022/07/29 10:23:00;;;;;;;0.10;0.10;;;;;;;25.45;42.65;101827.75;5090980;28;20060;-82
2022/07/29 10:25:27;;;;;;;0.00;0.00;;;;;;;25.59;43.12;101829.53;5095012;28;20034;-82
2022/07/29 10:27:54;;;;;;;0.10;0.10;;;;;;;25.69;42.32;101825.19;5082363;28;20085;-82
2022/07/29 10:30:23;;;;;;;0.10;0.10;;;;;;;25.77;42.47;101825.56;5099823;28;20035;-82
2022/07/29 10:43:37;;;;;;;0.00;0.00;;;;;;;26.18;41.61;101820.06;5113024;27;20408;-82
2022/07/29 10:46:04;;;;;;;0.10;0.10;;;;;;;26.16;41.92;101809.31;5109215;28;20024;-82
2022/07/29 10:48:31;;;;;;;3.50;1.35;;;;;;;26.21;41.00;101815.28;5113433;28;20110;-81
2022/07/29 10:51:03;;;;;;;0.10;0.10;;;;;;;26.32;41.11;101818.09;5116935;28;20077;-80
2022/07/29 10:53:50;;;;;;;0.10;0.10;;;;;;;26.45;39.99;101812.63;5114995;28;20028;-81
2022/07/29 11:02:00;;;;;;;0.10;0.10;;;;;;;26.62;39.84;101802.41;5116136;27;20339;-82
2022/07/29 11:07:25;;;;;;;0.10;0.10;;;;;;;26.88;39.96;101807.78;5114325;27;20746;-80
2022/07/29 11:12:51;;;;;;;0.10;0.10;;;;;;;26.88;39.16;101799.63;5104854;27;1185462;-79
2022/07/29 11:15:21;;;;;;;0.10;0.10;;;;;;;26.95;39.25;101798.19;5133795;27;20035;-80
2022/07/29 11:23:31;;;;;;;0.17;0.17;;;;;;;27.37;38.99;101792.38;5109590;27;20331;-76
2022/07/29 11:31:45;;;;;;;0.57;0.57;;;;;;;27.51;37.51;101788.59;5087752;27;20324;-77
2022/07/29 11:45:15;;;;;;;0.08;0.08;;;;;;;27.93;38.75;101799.84;5068311;28;20714;-76
2022/07/29 11:47:49;;;;;;;0.10;0.10;;;;;;;28.08;38.13;101793.19;5049453;28;20047;-76
2022/07/29 11:50:17;;;;;;;0.10;0.10;;;;;;;28.18;38.28;101792.47;5048953;28;20036;-77
2022/07/29 11:52:46;;;;;;;0.57;0.57;;;;;;;28.14;38.36;101796.41;5047881;28;20029;-76
2022/07/29 11:55:16;;;;;;;0.10;0.10;;;;;;;28.25;37.81;101793.69;5044967;28;20084;-77
2022/07/29 11:57:52;;;;;;;0.10;0.10;;;;;;;28.35;38.90;101796.56;5046537;28;20029;-77
2022/07/29 12:00:24;;;;;;;0.10;0.10;;;;;;;28.36;37.08;101790.13;5049225;28;20099;-77
2022/07/29 12:02:50;;;;;;;;;;;;;;;28.52;37.47;101800.66;5049113;28;20564;-77
2022/07/29 12:05:18;;;;;;;0.08;0.08;;;;;;;28.42;37.14;101795.06;5049756;28;19913;-77
2022/07/29 12:07:45;;;;;;;0.10;0.10;;;;;;;28.50;37.82;101797.16;5047112;28;20437;-77
2022/07/29 12:10:11;;;;;;;0.00;0.00;;;;;;;28.49;36.35;101795.47;5047647;28;20045;-76
2022/07/29 12:12:38;;;;;;;0.10;0.10;;;;;;;28.58;36.85;101801.00;5047369;28;20160;-77
2022/07/29 12:15:15;;;;;;;0.10;0.10;;;;;;;28.60;36.99;101798.16;5048994;28;20025;-77
2022/07/29 12:17:41;;;;;;;0.40;0.40;;;;;;;28.62;36.64;101796.16;5049519;28;20037;-77
2022/07/29 12:20:08;;;;;;;0.00;0.00;;;;;;;28.65;35.42;101801.38;5049976;28;20399;-77
2022/07/29 12:22:39;;;;;;;0.10;0.10;;;;;;;28.77;35.80;101804.13;5048234;28;20021;-77
2022/07/29 12:25:09;;;;;;;0.20;0.20;;;;;;;28.86;36.19;101804.22;5049789;28;20044;-78
2022/07/29 12:27:35;;;;;;;0.10;0.10;;;;;;;28.92;35.79;101802.84;5048053;28;20033;-77
2022/07/29 12:30:05;;;;;;;0.10;0.10;;;;;;;28.98;35.73;101806.94;5049855;28;20060;-76
2022/07/29 12:32:36;;;;;;;0.20;0.20;;;;;;;29.03;35.38;101808.25;5049626;28;20022;-77
2022/07/29 12:37:46;;;;;;;0.00;0.00;;;;;;;29.19;35.31;101809.72;5069310;28;20374;-76
2022/07/29 12:40:16;;;;;;;0.00;0.00;;;;;;;29.27;37.47;101804.44;5067641;28;20024;-77
2022/07/29 12:43:02;;;;;;;0.10;0.10;;;;;;;29.40;36.72;101806.19;5060850;28;20060;-77